sensor_id;sensor_type;location;lat;lon;timestamp;P1;durP1;ratioP1;P2;durP2;ratioP2
11620;SDS011;5866;49.094;11.900;2023-11-19T00:00:07;12.33;;;11.33;;
11620;SDS011;5866;49.094;11.900;2023-11-19T00:02:41;10.70;;;9.90;;
11620;SDS011;5866;49.094;11.900;2023-11-19T00:05:09;9.23;;;8.60;;
11620;SDS011;5866;49.094;11.900;2023-11-19T00:07:39;10.53;;;9.83;;
11620;SDS011;5866;49.094;11.900;2023-11-19T00:10:08;13.10;;;12.10;;
11620;SDS011;5866;49.094;11.900;2023-11-19T00:12:37;14.40;;;13.40;;
11620;SDS011;5866;49.094;11.900;2023-11-19T00:15:07;12.07;;;11.27;;
11620;SDS011;5866;49.094;11.900;2023-11-19T00:17:38;13.83;;;12.97;;
11620;SDS011;5866;49.094;11.900;2023-11-19T00:20:08;13.30;;;12.40;;
11620;SDS011;5866;49.094;11.900;2023-11-19T00:22:37;10.80;;;10.00;;
11620;SDS011;5866;49.094;11.900;2023-11-19T00:25:15;9.93;;;9.23;;
11620;SDS011;5866;49.094;11.900;2023-11-19T00:27:42;10.73;;;10.03;;
11620;SDS011;5866;49.094;11.900;2023-11-19T00:30:11;9.87;;;9.27;;
11620;SDS011;5866;49.094;11.900;2023-11-19T00:32:40;10.40;;;9.80;;
11620;SDS011;5866;49.094;11.900;2023-11-19T00:35:10;10.07;;;9.37;;
11620;SDS011;5866;49.094;11.900;2023-11-19T00:37:40;12.20;;;11.50;;
11620;SDS011;5866;49.094;11.900;2023-11-19T00:40:09;12.63;;;11.83;;
11620;SDS011;5866;49.094;11.900;2023-11-19T00:42:38;14.67;;;13.80;;
11620;SDS011;5866;49.094;11.900;2023-11-19T00:45:05;10.40;;;9.73;;
11620;SDS011;5866;49.094;11.900;2023-11-19T00:47:36;14.27;;;13.40;;
11620;SDS011;5866;49.094;11.900;2023-11-19T00:50:05;8.70;;;8.10;;
11620;SDS011;5866;49.094;11.900;2023-11-19T00:52:37;9.07;;;8.37;;
11620;SDS011;5866;49.094;11.900;2023-11-19T00:55:05;9.57;;;8.97;;
11620;SDS011;5866;49.094;11.900;2023-11-19T00:57:34;7.37;;;6.87;;
11620;SDS011;5866;49.094;11.900;2023-11-19T01:00:03;8.70;;;8.20;;
11620;SDS011;5866;49.094;11.900;2023-11-19T01:02:37;9.47;;;8.70;;
11620;SDS011;5866;49.094;11.900;2023-11-19T01:05:07;7.73;;;7.23;;
11620;SDS011;5866;49.094;11.900;2023-11-19T01:07:37;10.53;;;9.73;;
11620;SDS011;5866;49.094;11.900;2023-11-19T01:10:06;12.97;;;12.10;;
11620;SDS011;5866;49.094;11.900;2023-11-19T01:12:35;11.23;;;10.50;;
11620;SDS011;5866;49.094;11.900;2023-11-19T01:15:04;10.57;;;9.87;;
11620;SDS011;5866;49.094;11.900;2023-11-19T01:17:32;8.97;;;8.33;;
11620;SDS011;5866;49.094;11.900;2023-11-19T01:20:00;7.50;;;7.00;;
11620;SDS011;5866;49.094;11.900;2023-11-19T01:22:29;9.73;;;9.10;;
11620;SDS011;5866;49.094;11.900;2023-11-19T01:24:59;8.90;;;8.30;;
11620;SDS011;5866;49.094;11.900;2023-11-19T01:27:27;9.27;;;8.67;;
11620;SDS011;5866;49.094;11.900;2023-11-19T01:29:54;8.73;;;8.20;;
11620;SDS011;5866;49.094;11.900;2023-11-19T01:32:22;9.23;;;8.63;;
11620;SDS011;5866;49.094;11.900;2023-11-19T01:34:50;11.17;;;10.47;;
11620;SDS011;5866;49.094;11.900;2023-11-19T01:37:18;9.23;;;8.63;;
11620;SDS011;5866;49.094;11.900;2023-11-19T01:39:45;10.47;;;9.77;;
11620;SDS011;5866;49.094;11.900;2023-11-19T01:42:26;8.60;;;8.03;;
11620;SDS011;5866;49.094;11.900;2023-11-19T01:44:54;11.70;;;10.90;;
11620;SDS011;5866;49.094;11.900;2023-11-19T01:47:25;9.17;;;8.47;;
11620;SDS011;5866;49.094;11.900;2023-11-19T01:49:52;8.67;;;8.07;;
11620;SDS011;5866;49.094;11.900;2023-11-19T01:52:20;10.27;;;9.57;;
11620;SDS011;5866;49.094;11.900;2023-11-19T01:54:48;9.40;;;8.70;;
11620;SDS011;5866;49.094;11.900;2023-11-19T01:57:17;10.20;;;9.50;;
11620;SDS011;5866;49.094;11.900;2023-11-19T01:59:46;9.77;;;9.17;;
11620;SDS011;5866;49.094;11.900;2023-11-19T02:02:13;13.00;;;12.20;;
11620;SDS011;5866;49.094;11.900;2023-11-19T02:04:41;12.03;;;11.33;;
11620;SDS011;5866;49.094;11.900;2023-11-19T02:07:09;9.67;;;9.07;;
11620;SDS011;5866;49.094;11.900;2023-11-19T02:09:37;10.83;;;10.20;;
11620;SDS011;5866;49.094;11.900;2023-11-19T02:12:05;11.13;;;10.43;;
11620;SDS011;5866;49.094;11.900;2023-11-19T02:14:33;12.60;;;11.80;;
11620;SDS011;5866;49.094;11.900;2023-11-19T02:17:02;13.93;;;13.00;;
11620;SDS011;5866;49.094;11.900;2023-11-19T02:19:30;12.03;;;11.33;;
11620;SDS011;5866;49.094;11.900;2023-11-19T02:21:57;12.30;;;11.53;;
11620;SDS011;5866;49.094;11.900;2023-11-19T02:24:27;12.87;;;12.13;;
11620;SDS011;5866;49.094;11.900;2023-11-19T02:27:02;14.33;;;13.47;;
11620;SDS011;5866;49.094;11.900;2023-11-19T02:29:37;11.97;;;11.27;;
11620;SDS011;5866;49.094;11.900;2023-11-19T02:32:05;12.33;;;11.60;;
11620;SDS011;5866;49.094;11.900;2023-11-19T02:34:35;13.77;;;12.97;;
11620;SDS011;5866;49.094;11.900;2023-11-19T02:37:03;10.40;;;9.80;;
11620;SDS011;5866;49.094;11.900;2023-11-19T02:39:31;10.63;;;10.03;;
11620;SDS011;5866;49.094;11.900;2023-11-19T02:41:59;9.37;;;8.77;;
11620;SDS011;5866;49.094;11.900;2023-11-19T02:44:27;12.17;;;11.47;;
11620;SDS011;5866;49.094;11.900;2023-11-19T02:46:58;11.17;;;10.47;;
11620;SDS011;5866;49.094;11.900;2023-11-19T02:49:26;10.97;;;10.33;;
11620;SDS011;5866;49.094;11.900;2023-11-19T02:51:54;10.07;;;9.47;;
11620;SDS011;5866;49.094;11.900;2023-11-19T02:54:22;11.47;;;10.77;;
11620;SDS011;5866;49.094;11.900;2023-11-19T02:56:53;11.60;;;10.70;;
11620;SDS011;5866;49.094;11.900;2023-11-19T02:59:25;12.30;;;11.60;;
11620;SDS011;5866;49.094;11.900;2023-11-19T03:01:54;10.17;;;9.57;;
11620;SDS011;5866;49.094;11.900;2023-11-19T03:04:23;13.63;;;12.83;;
11620;SDS011;5866;49.094;11.900;2023-11-19T03:06:51;10.40;;;9.73;;
11620;SDS011;5866;49.094;11.900;2023-11-19T03:09:19;11.40;;;10.70;;
11620;SDS011;5866;49.094;11.900;2023-11-19T03:11:47;8.67;;;8.17;;
11620;SDS011;5866;49.094;11.900;2023-11-19T03:14:15;10.53;;;9.90;;
11620;SDS011;5866;49.094;11.900;2023-11-19T03:16:44;17.20;;;16.17;;
11620;SDS011;5866;49.094;11.900;2023-11-19T03:19:12;21.37;;;20.23;;
11620;SDS011;5866;49.094;11.900;2023-11-19T03:21:52;19.97;;;18.83;;
11620;SDS011;5866;49.094;11.900;2023-11-19T03:24:20;21.97;;;20.73;;
11620;SDS011;5866;49.094;11.900;2023-11-19T03:26:48;22.73;;;21.53;;
11620;SDS011;5866;49.094;11.900;2023-11-19T03:29:16;23.00;;;21.73;;
11620;SDS011;5866;49.094;11.900;2023-11-19T03:31:44;25.60;;;24.20;;
11620;SDS011;5866;49.094;11.900;2023-11-19T03:34:11;21.63;;;20.43;;
11620;SDS011;5866;49.094;11.900;2023-11-19T03:36:39;22.93;;;21.67;;
11620;SDS011;5866;49.094;11.900;2023-11-19T03:39:08;15.60;;;14.60;;
11620;SDS011;5866;49.094;11.900;2023-11-19T03:41:36;20.50;;;19.40;;
11620;SDS011;5866;49.094;11.900;2023-11-19T03:44:06;21.60;;;20.43;;
11620;SDS011;5866;49.094;11.900;2023-11-19T03:46:34;19.47;;;18.40;;
11620;SDS011;5866;49.094;11.900;2023-11-19T03:49:02;17.37;;;16.40;;
11620;SDS011;5866;49.094;11.900;2023-11-19T03:51:30;20.60;;;19.50;;
11620;SDS011;5866;49.094;11.900;2023-11-19T03:53:58;18.77;;;17.70;;
11620;SDS011;5866;49.094;11.900;2023-11-19T03:56:27;20.10;;;18.93;;
11620;SDS011;5866;49.094;11.900;2023-11-19T03:58:56;16.47;;;15.47;;
11620;SDS011;5866;49.094;11.900;2023-11-19T04:01:24;13.20;;;12.43;;
11620;SDS011;5866;49.094;11.900;2023-11-19T04:03:52;13.83;;;13.03;;
11620;SDS011;5866;49.094;11.900;2023-11-19T04:06:19;14.40;;;13.60;;
11620;SDS011;5866;49.094;11.900;2023-11-19T04:08:47;13.63;;;12.83;;
11620;SDS011;5866;49.094;11.900;2023-11-19T04:11:15;14.43;;;13.63;;
11620;SDS011;5866;49.094;11.900;2023-11-19T04:13:44;15.83;;;14.93;;
11620;SDS011;5866;49.094;11.900;2023-11-19T04:16:12;16.00;;;15.10;;
11620;SDS011;5866;49.094;11.900;2023-11-19T04:18:41;12.77;;;12.07;;
11620;SDS011;5866;49.094;11.900;2023-11-19T04:21:08;13.53;;;12.73;;
11620;SDS011;5866;49.094;11.900;2023-11-19T04:23:37;13.60;;;12.80;;
11620;SDS011;5866;49.094;11.900;2023-11-19T04:26:04;12.60;;;11.90;;
11620;SDS011;5866;49.094;11.900;2023-11-19T04:28:35;14.80;;;13.90;;
11620;SDS011;5866;49.094;11.900;2023-11-19T04:31:05;16.03;;;15.17;;
11620;SDS011;5866;49.094;11.900;2023-11-19T04:33:33;18.60;;;17.60;;
11620;SDS011;5866;49.094;11.900;2023-11-19T04:36:01;21.90;;;20.70;;
11620;SDS011;5866;49.094;11.900;2023-11-19T04:38:29;17.20;;;16.20;;
11620;SDS011;5866;49.094;11.900;2023-11-19T04:40:57;22.40;;;21.13;;
11620;SDS011;5866;49.094;11.900;2023-11-19T04:43:24;22.17;;;20.93;;
11620;SDS011;5866;49.094;11.900;2023-11-19T04:45:52;19.37;;;18.27;;
11620;SDS011;5866;49.094;11.900;2023-11-19T04:48:21;20.33;;;19.23;;
11620;SDS011;5866;49.094;11.900;2023-11-19T04:50:48;20.63;;;19.53;;
11620;SDS011;5866;49.094;11.900;2023-11-19T04:53:17;18.07;;;17.00;;
11620;SDS011;5866;49.094;11.900;2023-11-19T04:55:45;17.03;;;16.03;;
11620;SDS011;5866;49.094;11.900;2023-11-19T04:58:12;20.50;;;19.30;;
11620;SDS011;5866;49.094;11.900;2023-11-19T05:00:40;24.33;;;23.03;;
11620;SDS011;5866;49.094;11.900;2023-11-19T05:03:07;21.37;;;20.13;;
11620;SDS011;5866;49.094;11.900;2023-11-19T05:05:36;21.97;;;20.77;;
11620;SDS011;5866;49.094;11.900;2023-11-19T05:08:04;20.80;;;19.60;;
11620;SDS011;5866;49.094;11.900;2023-11-19T05:10:32;20.43;;;19.23;;
11620;SDS011;5866;49.094;11.900;2023-11-19T05:13:00;19.87;;;18.77;;
11620;SDS011;5866;49.094;11.900;2023-11-19T05:15:27;20.30;;;18.80;;
11620;SDS011;5866;49.094;11.900;2023-11-19T05:17:55;18.87;;;17.83;;
11620;SDS011;5866;49.094;11.900;2023-11-19T05:20:22;16.80;;;15.80;;
11620;SDS011;5866;49.094;11.900;2023-11-19T05:22:51;17.13;;;16.13;;
11620;SDS011;5866;49.094;11.900;2023-11-19T05:25:19;18.17;;;17.10;;
11620;SDS011;5866;49.094;11.900;2023-11-19T05:27:47;12.77;;;11.97;;
11620;SDS011;5866;49.094;11.900;2023-11-19T05:30:14;16.07;;;15.07;;
11620;SDS011;5866;49.094;11.900;2023-11-19T05:32:42;17.77;;;16.73;;
11620;SDS011;5866;49.094;11.900;2023-11-19T05:35:10;18.80;;;17.70;;
11620;SDS011;5866;49.094;11.900;2023-11-19T05:37:38;21.87;;;20.57;;
11620;SDS011;5866;49.094;11.900;2023-11-19T05:40:08;25.13;;;23.60;;
11620;SDS011;5866;49.094;11.900;2023-11-19T05:42:41;27.00;;;25.40;;
11620;SDS011;5866;49.094;11.900;2023-11-19T05:45:11;30.97;;;28.97;;
11620;SDS011;5866;49.094;11.900;2023-11-19T05:47:38;31.53;;;29.53;;
11620;SDS011;5866;49.094;11.900;2023-11-19T05:50:07;31.30;;;29.30;;
11620;SDS011;5866;49.094;11.900;2023-11-19T05:52:36;30.30;;;28.20;;
11620;SDS011;5866;49.094;11.900;2023-11-19T05:55:04;27.77;;;25.97;;
11620;SDS011;5866;49.094;11.900;2023-11-19T05:57:37;29.67;;;27.67;;
11620;SDS011;5866;49.094;11.900;2023-11-19T06:00:08;30.97;;;28.73;;
11620;SDS011;5866;49.094;11.900;2023-11-19T06:02:39;29.17;;;27.03;;
11620;SDS011;5866;49.094;11.900;2023-11-19T06:05:07;34.70;;;32.33;;
11620;SDS011;5866;49.094;11.900;2023-11-19T06:07:35;31.83;;;29.53;;
11620;SDS011;5866;49.094;11.900;2023-11-19T06:10:05;35.47;;;32.93;;
11620;SDS011;5866;49.094;11.900;2023-11-19T06:12:37;35.33;;;32.93;;
11620;SDS011;5866;49.094;11.900;2023-11-19T06:15:07;36.23;;;33.57;;
11620;SDS011;5866;49.094;11.900;2023-11-19T06:17:36;35.03;;;32.73;;
11620;SDS011;5866;49.094;11.900;2023-11-19T06:20:04;37.33;;;34.57;;
11620;SDS011;5866;49.094;11.900;2023-11-19T06:22:34;36.93;;;33.93;;
11620;SDS011;5866;49.094;11.900;2023-11-19T06:25:01;32.63;;;29.83;;
11620;SDS011;5866;49.094;11.900;2023-11-19T06:27:33;110.13;;;29.90;;
11620;SDS011;5866;49.094;11.900;2023-11-19T06:30:03;71.80;;;21.37;;
11620;SDS011;5866;49.094;11.900;2023-11-19T06:32:31;150.73;;;25.87;;
11620;SDS011;5866;49.094;11.900;2023-11-19T06:34:59;69.03;;;20.30;;
11620;SDS011;5866;49.094;11.900;2023-11-19T06:37:27;92.67;;;21.80;;
11620;SDS011;5866;49.094;11.900;2023-11-19T06:39:55;67.33;;;16.37;;
11620;SDS011;5866;49.094;11.900;2023-11-19T06:42:22;125.27;;;16.00;;
11620;SDS011;5866;49.094;11.900;2023-11-19T06:44:50;98.17;;;16.97;;
11620;SDS011;5866;49.094;11.900;2023-11-19T06:47:19;213.33;;;22.70;;
11620;SDS011;5866;49.094;11.900;2023-11-19T06:49:47;91.53;;;13.50;;
11620;SDS011;5866;49.094;11.900;2023-11-19T06:52:15;73.13;;;17.33;;
11620;SDS011;5866;49.094;11.900;2023-11-19T06:54:43;39.57;;;17.67;;
11620;SDS011;5866;49.094;11.900;2023-11-19T06:57:11;21.57;;;19.47;;
11620;SDS011;5866;49.094;11.900;2023-11-19T06:59:40;25.87;;;23.57;;
11620;SDS011;5866;49.094;11.900;2023-11-19T07:02:08;37.53;;;34.93;;
11620;SDS011;5866;49.094;11.900;2023-11-19T07:04:37;35.77;;;32.97;;
11620;SDS011;5866;49.094;11.900;2023-11-19T07:07:05;54.67;;;51.17;;
11620;SDS011;5866;49.094;11.900;2023-11-19T07:09:32;40.03;;;37.13;;
11620;SDS011;5866;49.094;11.900;2023-11-19T07:12:00;51.80;;;34.70;;
11620;SDS011;5866;49.094;11.900;2023-11-19T07:14:31;36.60;;;33.30;;
11620;SDS011;5866;49.094;11.900;2023-11-19T07:16:59;44.30;;;40.83;;
11620;SDS011;5866;49.094;11.900;2023-11-19T07:19:26;43.40;;;40.37;;
11620;SDS011;5866;49.094;11.900;2023-11-19T07:21:56;42.23;;;39.40;;
11620;SDS011;5866;49.094;11.900;2023-11-19T07:24:23;39.13;;;36.43;;
11620;SDS011;5866;49.094;11.900;2023-11-19T07:26:51;44.30;;;41.30;;
11620;SDS011;5866;49.094;11.900;2023-11-19T07:29:18;40.93;;;38.33;;
11620;SDS011;5866;49.094;11.900;2023-11-19T07:31:50;41.57;;;38.87;;
11620;SDS011;5866;49.094;11.900;2023-11-19T07:34:18;42.90;;;40.00;;
11620;SDS011;5866;49.094;11.900;2023-11-19T07:36:47;43.13;;;40.10;;
11620;SDS011;5866;49.094;11.900;2023-11-19T07:39:16;47.97;;;45.00;;
11620;SDS011;5866;49.094;11.900;2023-11-19T07:41:44;47.37;;;44.40;;
11620;SDS011;5866;49.094;11.900;2023-11-19T07:44:11;46.53;;;43.63;;
11620;SDS011;5866;49.094;11.900;2023-11-19T07:46:39;45.13;;;42.33;;
11620;SDS011;5866;49.094;11.900;2023-11-19T07:49:08;38.23;;;35.93;;
11620;SDS011;5866;49.094;11.900;2023-11-19T07:51:36;42.70;;;39.87;;
11620;SDS011;5866;49.094;11.900;2023-11-19T07:54:04;40.17;;;37.60;;
11620;SDS011;5866;49.094;11.900;2023-11-19T07:56:33;31.73;;;29.63;;
11620;SDS011;5866;49.094;11.900;2023-11-19T07:59:01;31.90;;;29.80;;
11620;SDS011;5866;49.094;11.900;2023-11-19T08:01:29;36.43;;;34.07;;
11620;SDS011;5866;49.094;11.900;2023-11-19T08:03:56;28.53;;;26.63;;
11620;SDS011;5866;49.094;11.900;2023-11-19T08:06:26;30.67;;;28.57;;
11620;SDS011;5866;49.094;11.900;2023-11-19T08:08:54;37.03;;;34.60;;
11620;SDS011;5866;49.094;11.900;2023-11-19T08:11:21;34.30;;;32.03;;
11620;SDS011;5866;49.094;11.900;2023-11-19T08:13:50;37.83;;;35.10;;
11620;SDS011;5866;49.094;11.900;2023-11-19T08:16:18;38.90;;;36.07;;
11620;SDS011;5866;49.094;11.900;2023-11-19T08:18:45;19.20;;;14.70;;
11620;SDS011;5866;49.094;11.900;2023-11-19T08:21:13;19.07;;;15.27;;
11620;SDS011;5866;49.094;11.900;2023-11-19T08:23:41;57.60;;;16.43;;
11620;SDS011;5866;49.094;11.900;2023-11-19T08:26:08;20.43;;;13.37;;
11620;SDS011;5866;49.094;11.900;2023-11-19T08:28:36;18.00;;;16.13;;
11620;SDS011;5866;49.094;11.900;2023-11-19T08:31:06;16.37;;;14.87;;
11620;SDS011;5866;49.094;11.900;2023-11-19T08:33:33;23.43;;;21.50;;
11620;SDS011;5866;49.094;11.900;2023-11-19T08:36:01;25.90;;;23.73;;
11620;SDS011;5866;49.094;11.900;2023-11-19T08:38:30;25.17;;;22.97;;
11620;SDS011;5866;49.094;11.900;2023-11-19T08:40:57;25.17;;;22.10;;
11620;SDS011;5866;49.094;11.900;2023-11-19T08:43:26;28.10;;;21.47;;
11620;SDS011;5866;49.094;11.900;2023-11-19T08:45:54;19.93;;;17.80;;
11620;SDS011;5866;49.094;11.900;2023-11-19T08:48:23;38.10;;;22.57;;
11620;SDS011;5866;49.094;11.900;2023-11-19T08:50:52;23.47;;;21.27;;
11620;SDS011;5866;49.094;11.900;2023-11-19T08:53:19;45.67;;;41.97;;
11620;SDS011;5866;49.094;11.900;2023-11-19T08:55:47;59.93;;;55.73;;
11620;SDS011;5866;49.094;11.900;2023-11-19T08:58:15;67.47;;;61.10;;
11620;SDS011;5866;49.094;11.900;2023-11-19T09:00:44;59.70;;;52.27;;
11620;SDS011;5866;49.094;11.900;2023-11-19T09:03:11;61.60;;;56.07;;
11620;SDS011;5866;49.094;11.900;2023-11-19T09:05:41;70.83;;;63.53;;
11620;SDS011;5866;49.094;11.900;2023-11-19T09:08:08;78.17;;;71.57;;
11620;SDS011;5866;49.094;11.900;2023-11-19T09:10:37;70.10;;;64.43;;
11620;SDS011;5866;49.094;11.900;2023-11-19T09:13:05;62.55;;;57.78;;
11620;SDS011;5866;49.094;11.900;2023-11-19T09:15:32;56.13;;;52.43;;
11620;SDS011;5866;49.094;11.900;2023-11-19T09:18:00;64.85;;;60.20;;
11620;SDS011;5866;49.094;11.900;2023-11-19T09:20:28;67.03;;;62.83;;
11620;SDS011;5866;49.094;11.900;2023-11-19T09:23:00;43.28;;;40.30;;
11620;SDS011;5866;49.094;11.900;2023-11-19T09:25:27;33.30;;;30.75;;
11620;SDS011;5866;49.094;11.900;2023-11-19T09:28:10;65.47;;;61.47;;
11620;SDS011;5866;49.094;11.900;2023-11-19T09:30:39;43.25;;;39.55;;
11620;SDS011;5866;49.094;11.900;2023-11-19T09:33:07;194.35;;;180.95;;
11620;SDS011;5866;49.094;11.900;2023-11-19T09:35:34;211.30;;;200.68;;
11620;SDS011;5866;49.094;11.900;2023-11-19T09:38:04;169.00;;;160.10;;
11620;SDS011;5866;49.094;11.900;2023-11-19T09:40:32;232.23;;;219.82;;
11620;SDS011;5866;49.094;11.900;2023-11-19T09:42:59;152.02;;;144.23;;
11620;SDS011;5866;49.094;11.900;2023-11-19T09:45:27;152.98;;;144.18;;
11620;SDS011;5866;49.094;11.900;2023-11-19T09:47:55;89.57;;;84.82;;
11620;SDS011;5866;49.094;11.900;2023-11-19T09:50:25;72.05;;;68.10;;
11620;SDS011;5866;49.094;11.900;2023-11-19T09:52:52;121.57;;;115.22;;
11620;SDS011;5866;49.094;11.900;2023-11-19T09:55:21;272.65;;;257.83;;
11620;SDS011;5866;49.094;11.900;2023-11-19T09:57:49;173.45;;;164.52;;
11620;SDS011;5866;49.094;11.900;2023-11-19T10:00:19;212.40;;;201.18;;
11620;SDS011;5866;49.094;11.900;2023-11-19T10:02:48;269.45;;;254.75;;
11620;SDS011;5866;49.094;11.900;2023-11-19T10:05:17;259.70;;;245.65;;
11620;SDS011;5866;49.094;11.900;2023-11-19T10:07:47;199.23;;;188.57;;
11620;SDS011;5866;49.094;11.900;2023-11-19T10:10:15;60.63;;;56.80;;
11620;SDS011;5866;49.094;11.900;2023-11-19T10:12:46;59.28;;;55.67;;
11620;SDS011;5866;49.094;11.900;2023-11-19T10:15:20;67.88;;;64.15;;
11620;SDS011;5866;49.094;11.900;2023-11-19T10:17:50;77.82;;;73.65;;
11620;SDS011;5866;49.094;11.900;2023-11-19T10:20:18;54.13;;;51.28;;
11620;SDS011;5866;49.094;11.900;2023-11-19T10:22:46;41.17;;;38.80;;
11620;SDS011;5866;49.094;11.900;2023-11-19T10:25:23;45.42;;;43.00;;
11620;SDS011;5866;49.094;11.900;2023-11-19T10:27:53;22.33;;;21.08;;
11620;SDS011;5866;49.094;11.900;2023-11-19T10:30:22;13.95;;;13.23;;
11620;SDS011;5866;49.094;11.900;2023-11-19T10:33:05;16.15;;;15.05;;
11620;SDS011;5866;49.094;11.900;2023-11-19T10:35:34;62.15;;;58.88;;
11620;SDS011;5866;49.094;11.900;2023-11-19T10:38:12;86.07;;;81.65;;
11620;SDS011;5866;49.094;11.900;2023-11-19T10:40:41;32.45;;;30.73;;
11620;SDS011;5866;49.094;11.900;2023-11-19T10:43:10;23.02;;;21.63;;
11620;SDS011;5866;49.094;11.900;2023-11-19T10:45:38;18.08;;;16.98;;
11620;SDS011;5866;49.094;11.900;2023-11-19T10:48:06;19.25;;;17.95;;
11620;SDS011;5866;49.094;11.900;2023-11-19T10:50:34;50.17;;;47.10;;
11620;SDS011;5866;49.094;11.900;2023-11-19T10:53:03;22.73;;;21.42;;
11620;SDS011;5866;49.094;11.900;2023-11-19T10:55:32;21.50;;;20.40;;
11620;SDS011;5866;49.094;11.900;2023-11-19T10:58:01;22.77;;;21.58;;
11620;SDS011;5866;49.094;11.900;2023-11-19T11:00:36;27.52;;;26.13;;
11620;SDS011;5866;49.094;11.900;2023-11-19T11:03:09;22.02;;;20.83;;
11620;SDS011;5866;49.094;11.900;2023-11-19T11:05:38;25.80;;;24.42;;
11620;SDS011;5866;49.094;11.900;2023-11-19T11:08:08;48.17;;;45.70;;
11620;SDS011;5866;49.094;11.900;2023-11-19T11:10:39;35.55;;;33.72;;
11620;SDS011;5866;49.094;11.900;2023-11-19T11:13:13;30.83;;;29.20;;
11620;SDS011;5866;49.094;11.900;2023-11-19T11:15:42;49.10;;;46.60;;
11620;SDS011;5866;49.094;11.900;2023-11-19T11:18:13;57.08;;;54.00;;
11620;SDS011;5866;49.094;11.900;2023-11-19T11:20:41;63.28;;;59.90;;
11620;SDS011;5866;49.094;11.900;2023-11-19T11:23:29;73.18;;;69.45;;
11620;SDS011;5866;49.094;11.900;2023-11-19T11:26:28;59.95;;;56.80;;
11620;SDS011;5866;49.094;11.900;2023-11-19T11:29:14;29.17;;;27.67;;
11620;SDS011;5866;49.094;11.900;2023-11-19T11:31:55;24.67;;;23.33;;
11620;SDS011;5866;49.094;11.900;2023-11-19T11:37:29;44.35;;;42.00;;
11620;SDS011;5866;49.094;11.900;2023-11-19T11:40:00;63.58;;;60.13;;
11620;SDS011;5866;49.094;11.900;2023-11-19T11:42:35;91.03;;;86.22;;
11620;SDS011;5866;49.094;11.900;2023-11-19T11:45:04;73.43;;;69.55;;
11620;SDS011;5866;49.094;11.900;2023-11-19T11:50:35;21.20;;;20.10;;
11620;SDS011;5866;49.094;11.900;2023-11-19T11:53:15;15.95;;;15.15;;
11620;SDS011;5866;49.094;11.900;2023-11-19T11:55:56;13.27;;;12.57;;
11620;SDS011;5866;49.094;11.900;2023-11-19T11:58:29;36.40;;;34.38;;
11620;SDS011;5866;49.094;11.900;2023-11-19T12:01:04;52.88;;;50.13;;
11620;SDS011;5866;49.094;11.900;2023-11-19T12:03:37;136.00;;;129.10;;
11620;SDS011;5866;49.094;11.900;2023-11-19T12:06:05;139.63;;;132.60;;
11620;SDS011;5866;49.094;11.900;2023-11-19T12:08:34;186.60;;;177.45;;
11620;SDS011;5866;49.094;11.900;2023-11-19T12:11:19;160.38;;;152.38;;
11620;SDS011;5866;49.094;11.900;2023-11-19T12:13:52;118.22;;;112.18;;
11620;SDS011;5866;49.094;11.900;2023-11-19T12:16:24;105.63;;;100.32;;
11620;SDS011;5866;49.094;11.900;2023-11-19T12:18:55;180.50;;;171.63;;
11620;SDS011;5866;49.094;11.900;2023-11-19T12:21:29;140.93;;;133.73;;
11620;SDS011;5866;49.094;11.900;2023-11-19T12:23:59;149.13;;;141.82;;
11620;SDS011;5866;49.094;11.900;2023-11-19T12:26:34;173.27;;;164.80;;
11620;SDS011;5866;49.094;11.900;2023-11-19T12:29:03;150.18;;;142.77;;
11620;SDS011;5866;49.094;11.900;2023-11-19T12:31:34;120.03;;;113.97;;
11620;SDS011;5866;49.094;11.900;2023-11-19T12:34:07;38.38;;;36.33;;
11620;SDS011;5866;49.094;11.900;2023-11-19T12:36:39;47.30;;;44.65;;
11620;SDS011;5866;49.094;11.900;2023-11-19T12:39:08;36.03;;;34.13;;
11620;SDS011;5866;49.094;11.900;2023-11-19T12:41:52;48.22;;;45.70;;
11620;SDS011;5866;49.094;11.900;2023-11-19T12:44:20;28.20;;;26.77;;
11620;SDS011;5866;49.094;11.900;2023-11-19T12:47:01;44.70;;;42.30;;
11620;SDS011;5866;49.094;11.900;2023-11-19T12:49:31;31.95;;;30.08;;
11620;SDS011;5866;49.094;11.900;2023-11-19T12:51:59;28.83;;;27.25;;
11620;SDS011;5866;49.094;11.900;2023-11-19T12:54:33;54.28;;;50.60;;
11620;SDS011;5866;49.094;11.900;2023-11-19T12:57:01;9.63;;;9.02;;
11620;SDS011;5866;49.094;11.900;2023-11-19T12:59:31;12.65;;;11.95;;
11620;SDS011;5866;49.094;11.900;2023-11-19T13:01:59;26.58;;;25.17;;
11620;SDS011;5866;49.094;11.900;2023-11-19T13:04:27;14.80;;;13.90;;
11620;SDS011;5866;49.094;11.900;2023-11-19T13:06:58;6.10;;;5.80;;
11620;SDS011;5866;49.094;11.900;2023-11-19T13:09:29;6.60;;;5.97;;
11620;SDS011;5866;49.094;11.900;2023-11-19T13:11:57;10.88;;;10.25;;
11620;SDS011;5866;49.094;11.900;2023-11-19T13:14:35;7.03;;;6.63;;
11620;SDS011;5866;49.094;11.900;2023-11-19T13:17:03;11.98;;;11.32;;
11620;SDS011;5866;49.094;11.900;2023-11-19T13:19:32;17.77;;;16.77;;
11620;SDS011;5866;49.094;11.900;2023-11-19T13:22:00;20.23;;;19.23;;
11620;SDS011;5866;49.094;11.900;2023-11-19T13:24:28;9.88;;;9.32;;
11620;SDS011;5866;49.094;11.900;2023-11-19T13:26:56;8.68;;;8.18;;
11620;SDS011;5866;49.094;11.900;2023-11-19T13:29:24;6.15;;;5.75;;
11620;SDS011;5866;49.094;11.900;2023-11-19T13:31:54;17.33;;;16.23;;
11620;SDS011;5866;49.094;11.900;2023-11-19T13:34:22;4.40;;;4.10;;
11620;SDS011;5866;49.094;11.900;2023-11-19T13:36:49;6.70;;;6.20;;
11620;SDS011;5866;49.094;11.900;2023-11-19T13:39:18;7.07;;;5.45;;
11620;SDS011;5866;49.094;11.900;2023-11-19T13:41:49;4.47;;;4.18;;
11620;SDS011;5866;49.094;11.900;2023-11-19T13:44:17;4.50;;;4.20;;
11620;SDS011;5866;49.094;11.900;2023-11-19T13:46:44;17.40;;;16.45;;
11620;SDS011;5866;49.094;11.900;2023-11-19T13:49:13;3.10;;;2.97;;
11620;SDS011;5866;49.094;11.900;2023-11-19T13:51:41;2.92;;;2.58;;
11620;SDS011;5866;49.094;11.900;2023-11-19T13:54:09;3.95;;;3.75;;
11620;SDS011;5866;49.094;11.900;2023-11-19T13:56:38;3.72;;;3.45;;
11620;SDS011;5866;49.094;11.900;2023-11-19T13:59:06;2.88;;;2.63;;
11620;SDS011;5866;49.094;11.900;2023-11-19T14:01:35;3.65;;;3.45;;
11620;SDS011;5866;49.094;11.900;2023-11-19T14:04:02;5.18;;;3.35;;
11620;SDS011;5866;49.094;11.900;2023-11-19T14:06:30;9.07;;;8.48;;
11620;SDS011;5866;49.094;11.900;2023-11-19T14:08:58;13.77;;;12.80;;
11620;SDS011;5866;49.094;11.900;2023-11-19T14:11:25;33.78;;;31.88;;
11620;SDS011;5866;49.094;11.900;2023-11-19T14:13:54;24.15;;;22.75;;
11620;SDS011;5866;49.094;11.900;2023-11-19T14:16:22;23.65;;;22.40;;
11620;SDS011;5866;49.094;11.900;2023-11-19T14:18:53;24.88;;;23.30;;
11620;SDS011;5866;49.094;11.900;2023-11-19T14:21:21;21.88;;;20.67;;
11620;SDS011;5866;49.094;11.900;2023-11-19T14:23:48;19.17;;;18.17;;
11620;SDS011;5866;49.094;11.900;2023-11-19T14:26:16;20.65;;;19.55;;
11620;SDS011;5866;49.094;11.900;2023-11-19T14:28:43;22.10;;;20.98;;
11620;SDS011;5866;49.094;11.900;2023-11-19T14:31:15;17.98;;;16.98;;
11620;SDS011;5866;49.094;11.900;2023-11-19T14:33:43;20.33;;;19.17;;
11620;SDS011;5866;49.094;11.900;2023-11-19T14:36:10;16.38;;;15.55;;
11620;SDS011;5866;49.094;11.900;2023-11-19T14:38:38;25.05;;;23.65;;
11620;SDS011;5866;49.094;11.900;2023-11-19T14:41:06;15.18;;;14.10;;